Atlantic - Newfoundland: Past 24 Hour Conditions

 

Charlottetown Airport

10:00 AM ADT 21 October 2014
This table is a summary of hourly weather conditions for the past 24 hours.
Date / Time
(ADT)
Wind(knots) Conditions Visibility(km) Pressure(kPa) Air tempC) Relative humidity(%) Dew pointC)
21 October 2014
10:00 WSW 9 gust 18 Partly Cloudy 24 102.0 7 61 0
9:00 WSW 8 Mostly Cloudy 24 101.9 5 70 0
8:00 WSW 6 Mostly Cloudy 24 101.8 4 73 -1
7:00 SW 7 Mainly Clear 24 101.8 3 78 0
6:00 SW 5 Clear 24 101.7 3 82 0
5:00 SW 6 Clear 24 101.6 3 81 0
4:00 SW 5 Clear 24 101.5 3 83 0
3:00 WSW 5 Clear 24 101.5 3 78 0
2:00 SW 7 Clear 24 101.4 4 73 0
1:00 WSW 5 Mainly Clear 24 101.4 4 75 0
0:00 WSW 7 Mainly Clear 24 101.3 4 73 0
20 October 2014
23:00 WSW 8 Partly Cloudy 24 101.3 5 67 -1
22:00 WSW 11 Mostly Cloudy 24 101.2 5 61 -2
21:00 WSW 10 gust 17 Mostly Cloudy 24 101.2 6 60 -1
20:00 WSW 14 Mostly Cloudy 24 101.1 6 59 -1
19:00 WSW 13 gust 22 Mostly Cloudy 24 101.0 6 59 -1
18:00 WSW 12 gust 26 Mostly Cloudy 24 100.9 7 58 -1
17:00 WSW 16 gust 26 Mostly Cloudy 24 100.8 7 54 -2
16:00 WSW 13 gust 20 Mostly Cloudy 24 100.7 7 56 -1
15:00 W 15 gust 26 Mostly Cloudy 24 100.6 7 57 -1
14:00 WSW 10 gust 20 Mostly Cloudy 24 100.6 7 66 1
13:00 WSW 15 gust 26 Mostly Cloudy 24 100.6 6 67 0
12:00 W 11 gust 19 Mostly Cloudy 24 100.6 5 74 1
11:00 W 14 gust 20 Mostly Cloudy 24 100.5 5 74 1
10:00 W 16 gust 23 Mostly Cloudy 24 100.4 5 78 1
 
Map of Atlantic - Newfoundland marine weather areas Southwestern Grand Banks - 44138 Banquereau - 44139 Tail of the Bank - 44140 Nickerson Bank - 44251 Northeast Burgeo Bank - 44255 Blanc-Sablon Airport Cap Whittle Chevery Natashquan Airport Heath Point Miscou Island Grand Étang Ingonish Beach North Mountain St.Paul Island J.A. Douglas McCurdy Sydney Airport Charlottetown Airport East Point North Cape Argentia Bonavista Burgeo Cape Race Corner Brook Daniel's Harbour Englee Ferolle Point La Scie Port aux Basques Rocky Harbour Sagona Island St. Anthony Airport St. John's Int'l Airport St. Lawrence Stephenville Airport Twillingate Winterland Wreckhouse Cartwright Airport Mary's Harbour Grates Cove Pool's Island Marticot Island Long Pond Îles de la Madeleine Airport
Legend: buoyBuoy land stationLand Station